The Dalles, OR

2:10 AM PST on December 29, 2014 (GMT -0800)
Pine Grove | Change Station
CLOSE
Current Station
Personal Weather Station
Location: Hood River, OR
Elevation: 720 ft
Nearby Weather Stations
Active Advisory: Special Statement

Elev 720 ft 45.64 °N, 121.50 °W | Updated 44 seconds ago

Rain
Rain
35.9 °F
Feels Like 36 °F
N
0.0
Wind Variable Wind from SW
Gusts 2.0 mph

Today
High -- | Low -- °F
--% Chance of Precip.
Yesterday
High -- | Low -- °F
Precip. -- in
7:44 AM 4:29 PM
First Quarter, 57% visible
Pressure 30.16 in
Visibility 10.0 miles
Clouds Clear
Windchill 36 °F
Dew Point 35 °F
Humidity 97%
Rainfall 0.02 in
Snow Depth Not available.
UV 0 out of 12
Pollen .50 out of 12
Air Quality Not available.
Flu Activity Not available.
METAR KDLS 290953Z AUTO 26003KT 10SM CLR 01/00 A3015 RMK AO2 SLP211 T00110000

More Conditions Fewer Conditions

Pressure 30.16 in
Visibility 10.0 miles
Clouds Clear
Windchill 36 °F
Dew Point 35 °F
Humidity 97%
Rainfall 0.02 in
Snow Depth Not available.
UV 0 out of 12
Pollen .50 out of 12
Air Quality Not available.
Flu Activity Not available.
METAR KDLS 290953Z AUTO 26003KT 10SM CLR 01/00 A3015 RMK AO2 SLP211 T00110000

More Conditions Fewer Conditions

10-Day Weather Forecast

Almanac

Astronomy

Dec. 29, 2014 Rise Set
Actual Time
Civil Twilight
Nautical Twilight
Astronomical Twilight
Moon
Length of Visible Light
Length of Day
Tomorrow will be .
, % of the Moon is Illuminated

Today's Extremes

State Highs State Lows

Community

WunderPhotos

Upload Photos

1,781,563 photos uploaded!

WunderBlogs® & News

Nearby

Air Quality

  Air Quality AQ Index Pollutant
Not available.

Snow Depth

Station Depth Elevation

Earthquake Activity

City Distance Mag. Time & Date
Minimum magnitude displayed is 2.5.

Coastal Water Temperatures

Place Temperature

Nearby Weather Stations